Time;durP1;ratioP1;P1;durP2;ratioP2;P2;SDS_P1;SDS_P2;PMS_P1;PMS_P2;Temp;Humidity;BMP_temperature;BMP_pressure;BME280_temperature;BME280_humidity;BME280_pressure;Samples;Min_cycle;Max_cycle;Signal;HPM_P1;HPM_P2
2023/08/27 07:01:27;;;;;;;0.32;0.25;;;19.00;99.90;23.20;100628.00;;;;6103510;22;1429071;-70
2023/08/27 07:03:57;;;;;;;0.10;0.10;;;19.50;99.90;24.20;100661.00;;;;6187485;23;20155;-70
2023/08/27 07:06:24;;;;;;;1.27;1.17;;;20.30;99.90;22.20;100652.00;;;;6162079;23;20143;-70
2023/08/27 07:08:50;;;;;;;0.52;0.52;;;20.20;99.90;21.10;100626.00;;;;6160362;23;20638;-70
2023/08/27 07:11:16;;;;;;;0.10;0.10;;;19.20;99.90;20.80;100579.00;;;;6161038;23;20233;-69
2023/08/27 07:13:42;;;;;;;0.10;0.10;;;18.60;99.90;21.80;100628.00;;;;6187262;23;20167;-70
2023/08/27 07:16:08;;;;;;;0.10;0.10;;;18.90;99.90;22.00;100637.00;;;;6161101;23;20158;-70
2023/08/27 07:18:34;;;;;;;0.10;0.10;;;18.80;99.90;23.60;100660.00;;;;6161369;23;20140;-70
2023/08/27 07:21:06;;;;;;;0.10;0.10;;;19.60;99.90;26.20;100673.00;;;;6160968;23;20201;-70
2023/08/27 07:23:32;;;;;;;0.80;0.80;;;21.40;99.90;26.20;100708.00;;;;6160724;23;20562;-71
2023/08/27 07:25:58;;;;;;;0.30;0.30;;;22.70;99.90;29.20;100708.00;;;;6135999;23;20152;-70
2023/08/27 07:28:24;;;;;;;0.10;0.10;;;24.20;99.90;30.60;100748.00;;;;6187248;23;20181;-68
2023/08/27 07:30:53;;;;;;;0.10;0.10;;;25.60;99.90;24.90;100794.00;;;;6186729;23;20159;-70
2023/08/27 07:33:22;;;;;;;0.30;0.30;;;23.40;99.90;25.40;100692.00;;;;6161589;23;20226;-70
2023/08/27 07:35:50;;;;;;;1.52;1.45;;;22.30;99.90;24.70;100715.00;;;;6160570;23;20151;-70
2023/08/27 07:38:17;;;;;;;0.20;0.20;;;21.90;99.90;23.10;100629.00;;;;6186963;23;20165;-69
2023/08/27 07:40:43;;;;;;;0.10;0.10;;;20.50;99.90;21.50;100635.00;;;;6187151;23;20143;-69
2023/08/27 07:43:09;;;;;;;1.98;0.80;;;19.80;99.90;21.40;100653.00;;;;6186410;23;20658;-70
2023/08/27 07:45:37;;;;;;;0.47;0.40;;;19.60;99.90;20.20;100638.00;;;;6187124;23;20143;-70
2023/08/27 07:48:04;;;;;;;0.82;0.65;;;18.80;99.90;21.40;100632.00;;;;6160892;23;20175;-69
2023/08/27 07:50:30;;;;;;;0.10;0.10;;;18.80;99.90;21.00;100604.00;;;;6187327;23;20450;-70
2023/08/27 07:53:02;;;;;;;0.10;0.10;;;19.20;99.90;20.80;100621.00;;;;6186919;23;20155;-70
2023/08/27 07:55:31;;;;;;;0.20;0.20;;;18.60;99.90;21.30;100650.00;;;;6187019;23;20143;-70
2023/08/27 07:57:58;;;;;;;0.50;0.50;;;18.80;99.90;20.60;100596.00;;;;6187075;23;20178;-71
2023/08/27 08:00:27;;;;;;;0.20;0.20;;;18.90;99.90;22.10;100656.00;;;;6160371;23;20171;-70
2023/08/27 08:02:56;;;;;;;0.10;0.10;;;19.10;99.90;22.60;100667.00;;;;6186992;23;20237;-70
2023/08/27 08:05:27;;;;;;;0.10;0.10;;;19.70;99.90;22.40;100644.00;;;;6160863;23;20202;-70
2023/08/27 08:07:53;;;;;;;0.45;0.45;;;19.80;99.90;24.50;100694.00;;;;6186495;23;20135;-70
2023/08/27 08:10:20;;;;;;;0.10;0.10;;;21.00;99.90;23.80;100679.00;;;;6186733;23;20143;-70
2023/08/27 08:12:49;;;;;;;0.10;0.10;;;21.00;99.90;23.20;100666.00;;;;6161128;23;20171;-70
2023/08/27 08:15:16;;;;;;;0.20;0.20;;;20.30;99.90;22.70;100669.00;;;;6160754;23;20174;-70
2023/08/27 08:17:46;;;;;;;0.13;0.13;;;20.50;99.90;21.00;100611.00;;;;6136020;23;20166;-70
2023/08/27 08:20:13;;;;;;;11.48;1.35;;;19.70;99.90;23.80;100680.00;;;;6135711;23;20234;-70
2023/08/27 08:22:40;;;;;;;1.05;0.52;;;20.20;99.90;23.00;100677.00;;;;6160056;23;20506;-70
2023/08/27 08:25:09;;;;;;;0.22;0.10;;;20.40;99.90;23.50;100659.00;;;;6186776;23;20147;-69
2023/08/27 08:27:35;;;;;;;0.55;0.40;;;20.60;99.90;21.50;100671.00;;;;6159959;23;20580;-70
2023/08/27 08:30:04;;;;;;;0.73;0.55;;;19.70;99.90;21.80;100675.00;;;;6159816;23;20233;-69
2023/08/27 08:32:30;;;;;;;0.10;0.10;;;19.60;99.90;22.40;100681.00;;;;6186613;23;20618;-70
2023/08/27 08:34:56;;;;;;;0.10;0.10;;;19.60;99.90;21.40;100663.00;;;;6186744;23;20147;-70
2023/08/27 08:37:25;;;;;;;0.22;0.22;;;19.40;99.90;20.90;100675.00;;;;6186204;23;20576;-70
2023/08/27 08:39:51;;;;;;;0.10;0.10;;;18.90;99.90;22.10;100680.00;;;;6160244;23;20487;-70
2023/08/27 08:43:01;;;;;;;0.10;0.10;;;19.40;99.90;25.20;100710.00;;;;6159913;23;20242;-71
2023/08/27 08:45:42;;;;;;;0.10;0.10;;;20.70;99.90;26.40;100748.00;;;;6158963;23;20167;-70
2023/08/27 08:48:12;;;;;;;0.57;0.32;;;22.10;99.90;23.60;100747.00;;;;6186517;23;20178;-71
2023/08/27 08:50:40;;;;;;;0.30;0.30;;;21.40;99.90;21.40;100656.00;;;;6186444;23;20158;-70
2023/08/27 08:53:14;;;;;;;0.10;0.10;;;19.80;99.90;22.30;100667.00;;;;6160319;23;20629;-71
2023/08/27 08:55:46;;;;;;;3.00;0.38;;;19.90;99.90;23.30;100670.00;;;;6160472;23;20143;-71
2023/08/27 08:58:20;;;;;;;1.65;0.47;;;20.20;99.90;22.30;100659.00;;;;6186012;23;20140;-71
2023/08/27 09:00:55;;;;;;;0.20;0.20;;;20.00;99.90;23.60;100681.00;;;;6159875;23;20181;-70
2023/08/27 09:03:24;;;;;;;0.85;0.85;;;20.40;99.90;22.20;100688.00;;;;6159708;23;20174;-70
2023/08/27 09:05:54;;;;;;;0.10;0.10;;;20.50;99.90;23.70;100689.00;;;;6160656;23;20182;-70
2023/08/27 09:08:20;;;;;;;0.30;0.30;;;20.50;99.90;21.30;100665.00;;;;6159745;23;20159;-70
2023/08/27 09:10:52;;;;;;;1.08;0.65;;;19.80;99.90;21.20;100651.00;;;;6186308;23;20477;-71
2023/08/27 09:13:21;;;;;;;0.10;0.10;;;19.10;99.90;23.60;100679.00;;;;6185990;23;20147;-70
2023/08/27 09:15:49;;;;;;;0.10;0.10;;;19.90;99.90;25.10;100703.00;;;;6185861;23;20568;-70
2023/08/27 09:18:16;;;;;;;2.63;0.80;;;21.20;99.90;22.80;100665.00;;;;6159907;23;20217;-70
2023/08/27 09:20:43;;;;;;;0.28;0.28;;;20.80;99.90;23.00;100647.00;;;;6186109;23;20507;-70
2023/08/27 09:23:09;;;;;;;0.35;0.25;;;20.40;99.90;23.40;100703.00;;;;6159087;23;20497;-70
2023/08/27 09:25:39;;;;;;;0.57;0.57;;;20.70;99.90;21.60;100665.00;;;;6135360;23;20159;-70
2023/08/27 09:28:06;;;;;;;4.13;0.82;;;19.70;99.90;22.30;100682.00;;;;6186091;23;20154;-69
2023/08/27 09:30:33;;;;;;;0.80;0.80;;;19.80;99.90;22.30;100672.00;;;;6159537;23;20492;-71
2023/08/27 09:33:00;;;;;;;0.63;0.50;;;20.10;99.90;21.90;100674.00;;;;6159526;23;20512;-69
2023/08/27 09:35:41;;;;;;;0.10;0.10;;;20.10;99.90;22.80;100668.00;;;;6159860;23;20560;-70
2023/08/27 09:38:12;;;;;;;0.38;0.38;;;20.20;99.90;22.70;100684.00;;;;6159230;23;20599;-70
2023/08/27 09:40:39;;;;;;;0.15;0.15;;;20.70;99.90;22.10;100650.00;;;;6134985;23;20166;-70
2023/08/27 09:43:10;;;;;;;0.30;0.30;;;20.00;99.90;22.00;100659.00;;;;6185797;23;20175;-71
2023/08/27 09:45:38;;;;;;;0.10;0.10;;;19.70;99.90;23.80;100679.00;;;;6159372;23;20824;-70
2023/08/27 09:48:04;;;;;;;0.10;0.10;;;20.20;99.90;25.30;100692.00;;;;6159006;23;20517;-70
2023/08/27 09:50:32;;;;;;;0.13;0.13;;;21.10;99.90;26.00;100746.00;;;;6159653;23;20468;-70
2023/08/27 09:53:13;;;;;;;1.33;0.52;;;22.00;99.90;25.10;100770.00;;;;6134939;23;20151;-71
2023/08/27 09:55:40;;;;;;;0.20;0.20;;;21.90;99.90;23.50;100733.00;;;;6159408;23;20155;-70
2023/08/27 09:58:06;;;;;;;0.63;0.63;;;20.70;99.90;21.50;100675.00;;;;6159370;23;20148;-70
2023/08/27 10:00:34;;;;;;;0.60;0.55;;;19.50;99.90;21.70;100646.00;;;;6201004;23;20216;-70
2023/08/27 10:03:00;;;;;;;0.10;0.10;;;19.50;99.90;21.10;100645.00;;;;6188982;23;20189;-70
2023/08/27 10:05:34;;;;;;;0.43;0.25;;;19.30;99.90;22.80;100678.00;;;;6163891;23;20209;-70
2023/08/27 10:08:05;;;;;;;0.57;0.50;;;19.80;99.90;20.80;100661.00;;;;6189017;23;20208;-70
2023/08/27 10:10:36;;;;;;;0.10;0.10;;;19.50;99.90;22.00;100649.00;;;;6189042;23;20265;-71
2023/08/27 10:13:03;;;;;;;0.55;0.50;;;19.50;99.90;22.70;100671.00;;;;6189621;23;20225;-70
2023/08/27 10:15:30;;;;;;;0.50;0.50;;;20.10;99.90;22.10;100653.00;;;;6215316;23;20174;-70
2023/08/27 10:17:57;;;;;;;0.32;0.30;;;19.90;99.90;23.00;100681.00;;;;6215076;23;20150;-70
2023/08/27 10:20:26;;;;;;;0.30;0.30;;;20.20;99.90;24.10;100725.00;;;;6188983;23;20578;-70
2023/08/27 10:33:27;;;;;;;0.10;0.10;;;20.80;99.90;25.10;100707.00;;;;5070134;28;20555;-69
2023/08/27 10:35:57;;;;;;;0.10;0.10;;;21.60;99.90;26.70;100738.00;;;;5048937;28;20186;-69
2023/08/27 10:38:28;;;;;;;0.30;0.20;;;22.70;99.90;27.30;100755.00;;;;5049162;28;20183;-69
2023/08/27 10:40:55;;;;;;;0.20;0.20;;;23.80;99.90;25.90;100791.00;;;;5028475;28;20214;-69
2023/08/27 10:43:21;;;;;;;0.10;0.10;;;23.70;99.90;25.20;100807.00;;;;5049856;28;20190;-69
2023/08/27 10:45:49;;;;;;;2.17;0.50;;;22.60;99.90;25.00;100802.00;;;;5050021;28;20186;-69
2023/08/27 10:48:18;;;;;;;0.40;0.40;;;22.50;99.90;23.60;100836.00;;;;5049703;28;20248;-69
2023/08/27 10:51:08;;;;;;;0.10;0.10;;;21.70;99.90;25.60;100809.00;;;;5050295;28;20230;-69
2023/08/27 10:54:04;;;;;;;1.02;0.95;;;21.50;99.90;23.70;100803.00;;;;5048745;28;20185;-69
2023/08/27 10:56:39;;;;;;;0.10;0.10;;;21.20;99.90;24.90;100835.00;;;;5039376;28;20249;-69
2023/08/27 10:59:11;;;;;;;0.30;0.30;;;21.10;99.90;25.20;100844.00;;;;5049727;28;20182;-69
2023/08/27 11:02:08;;;;;;;0.20;0.20;;;21.30;99.90;24.30;100799.00;;;;5049659;28;20196;-70
2023/08/27 11:04:40;;;;;;;0.20;0.20;;;20.80;99.90;22.90;100720.00;;;;5040456;28;20190;-70
2023/08/27 11:07:17;;;;;;;0.30;0.30;;;20.10;99.90;23.20;100740.00;;;;5048647;28;20182;-70
2023/08/27 11:09:53;;;;;;;0.30;0.30;;;19.60;99.90;23.00;100728.00;;;;5072233;28;20204;-70
2023/08/27 11:12:36;;;;;;;0.30;0.30;;;19.20;99.90;22.60;100718.00;;;;5048545;28;20216;-69
2023/08/27 11:15:14;;;;;;;0.40;0.40;;;18.90;99.90;22.20;100723.00;;;;5048656;28;20193;-69
2023/08/27 11:17:40;;;;;;;2.57;1.00;;;18.70;99.90;20.70;100705.00;;;;5049537;28;20186;-69
2023/08/27 11:20:24;;;;;;;1.13;0.80;;;17.80;99.90;19.30;100697.00;;;;5048225;28;20739;-69
2023/08/27 11:23:09;;;;;;;0.50;0.50;;;17.10;99.90;19.40;100702.00;;;;5048653;28;20275;-69
2023/08/27 11:25:36;;;;;;;0.30;0.30;;;17.00;99.90;19.50;100691.00;;;;5048381;28;20249;-69
2023/08/27 11:28:07;;;;;;;0.43;0.43;;;16.80;99.90;19.30;100695.00;;;;5047762;28;20551;-69
2023/08/27 11:30:33;;;;;;;3.33;1.40;;;16.90;99.90;18.70;100690.00;;;;5031419;28;20187;-69
2023/08/27 11:33:02;;;;;;;0.30;0.30;;;16.70;99.90;18.40;100670.00;;;;5047424;28;20684;-69
2023/08/27 11:35:28;;;;;;;0.30;0.30;;;16.50;99.90;19.20;100682.00;;;;5048995;28;20237;-69
2023/08/27 11:37:55;;;;;;;0.43;0.43;;;16.60;99.90;19.00;100684.00;;;;5048020;28;20318;-69
2023/08/27 11:40:22;;;;;;;1.10;1.10;;;16.60;99.90;19.30;100630.00;;;;5030900;28;20191;-70
2023/08/27 11:42:56;;;;;;;0.63;0.63;;;16.80;99.90;20.10;100650.00;;;;5045822;28;20221;-70
2023/08/27 11:45:35;;;;;;;0.83;0.80;;;17.20;99.90;18.60;100689.00;;;;5046713;28;20229;-69
2023/08/27 11:48:08;;;;;;;0.10;0.10;;;16.90;99.90;20.00;100694.00;;;;5063445;28;20207;-69
2023/08/27 11:50:37;;;;;;;0.20;0.20;;;17.30;99.90;21.10;100700.00;;;;5034565;28;20219;-69
2023/08/27 11:53:05;;;;;;;0.88;0.80;;;17.90;99.90;20.40;100706.00;;;;5021829;28;20206;-69
2023/08/27 11:55:34;;;;;;;0.20;0.20;;;18.20;99.90;20.00;100703.00;;;;5026762;28;20241;-68
2023/08/27 11:58:00;;;;;;;0.90;0.63;;;18.00;99.90;21.20;100714.00;;;;5033975;28;20198;-70
2023/08/27 12:00:30;;;;;;;2.45;2.25;;;18.30;99.90;21.80;100726.00;;;;5034104;28;20185;-69
2023/08/27 12:02:56;;;;;;;0.52;0.52;;;18.60;99.90;20.70;100711.00;;;;5035518;28;20198;-70
2023/08/27 12:05:28;;;;;;;0.30;0.30;;;18.50;99.90;20.50;100723.00;;;;5033952;28;20229;-70
2023/08/27 12:07:57;;;;;;;1.98;1.20;;;18.30;99.90;23.20;100745.00;;;;5035426;28;20178;-69
2023/08/27 12:10:28;;;;;;;1.30;1.23;;;19.30;99.90;22.90;100751.00;;;;5035340;28;20198;-70
2023/08/27 12:12:59;;;;;;;0.28;0.28;;;19.90;99.90;23.10;100746.00;;;;5033803;28;20198;-69
2023/08/27 12:15:31;;;;;;;0.10;0.10;;;20.20;99.90;24.30;100755.00;;;;5017592;28;20198;-70
2023/08/27 12:18:00;;;;;;;0.38;0.38;;;20.30;99.90;22.60;100744.00;;;;5034004;28;20174;-70
2023/08/27 12:20:32;;;;;;;0.35;0.35;;;20.20;99.90;21.90;100734.00;;;;5034959;28;20179;-69
2023/08/27 12:23:12;;;;;;;0.40;0.40;;;19.60;99.90;21.50;100723.00;;;;5035493;28;20226;-69
2023/08/27 12:25:53;;;;;;;0.20;0.20;;;19.30;99.90;23.30;100701.00;;;;5033766;28;20218;-70
2023/08/27 12:28:20;;;;;;;0.22;0.22;;;19.80;99.90;24.50;100735.00;;;;5033468;28;20716;-69
2023/08/27 12:31:05;;;;;;;0.10;0.10;;;20.60;99.90;25.00;100731.00;;;;5017166;28;20515;-70
2023/08/27 12:33:39;;;;;;;0.30;0.30;;;21.00;99.90;23.50;100714.00;;;;5033275;28;20536;-69
2023/08/27 12:36:07;;;;;;;0.10;0.10;;;21.10;99.90;24.30;100741.00;;;;5033474;28;20193;-70
2023/08/27 12:38:34;;;;;;;0.20;0.20;;;21.00;99.90;25.10;100760.00;;;;5016994;28;20179;-70
2023/08/27 12:41:03;;;;;;;0.13;0.13;;;21.30;99.90;24.90;100773.00;;;;5013935;28;20282;-69
2023/08/27 12:43:29;;;;;;;0.38;0.38;;;21.30;99.90;23.90;100788.00;;;;5033022;28;20286;-70
2023/08/27 12:45:58;;;;;;;0.10;0.10;;;21.20;99.90;23.60;100768.00;;;;5033491;28;20281;-69
2023/08/27 12:48:34;;;;;;;0.20;0.20;;;20.50;99.90;24.80;100783.00;;;;5033283;28;20183;-69
2023/08/27 12:51:01;;;;;;;0.10;0.10;;;20.70;99.90;25.10;100783.00;;;;5034478;28;20273;-69
2023/08/27 12:53:30;;;;;;;0.10;0.10;;;20.90;99.90;24.30;100777.00;;;;5034536;28;20191;-70
2023/08/27 12:55:56;;;;;;;0.10;0.10;;;20.70;99.90;25.00;100781.00;;;;5032403;28;20207;-69
2023/08/27 12:58:22;;;;;;;0.32;0.32;;;21.20;99.90;26.40;100838.00;;;;5032674;28;20229;-69
2023/08/27 13:00:52;;;;;;;0.63;0.63;;;22.00;99.90;26.20;100861.00;;;;5034420;28;20187;-70
2023/08/27 13:03:18;;;;;;;0.10;0.10;;;22.30;99.90;26.60;100867.00;;;;5033122;28;20191;-70
2023/08/27 13:05:44;;;;;;;0.10;0.10;;;22.50;99.90;25.90;100869.00;;;;5013481;28;20184;-69
2023/08/27 13:08:10;;;;;;;0.20;0.20;;;22.40;99.90;25.90;100883.00;;;;5033830;28;20626;-69
2023/08/27 13:10:38;;;;;;;0.10;0.10;;;22.10;99.90;25.20;100846.00;;;;5033783;28;20189;-70
2023/08/27 13:13:06;;;;;;;0.20;0.20;;;21.80;99.90;25.10;100789.00;;;;5016888;28;20198;-69
2023/08/27 13:15:37;;;;;;;0.20;0.20;;;21.40;99.90;25.10;100767.00;;;;5030242;28;20269;-70
2023/08/27 13:18:07;;;;;;;0.10;0.10;;;21.20;99.90;25.10;100778.00;;;;5032694;28;20178;-69
2023/08/27 13:20:36;;;;;;;0.10;0.10;;;21.20;99.90;25.10;100748.00;;;;5033563;28;20190;-70
2023/08/27 13:23:11;;;;;;;0.10;0.10;;;21.20;99.90;25.10;100795.00;;;;5033822;28;20179;-70
2023/08/27 13:25:43;;;;;;;0.10;0.10;;;21.10;99.90;25.30;100804.00;;;;5016849;28;20209;-69
2023/08/27 13:28:08;;;;;;;0.35;0.35;;;21.30;99.90;25.00;100804.00;;;;5033510;28;20182;-69
2023/08/27 13:30:37;;;;;;;0.20;0.20;;;21.30;99.90;25.00;100824.00;;;;5032881;28;20189;-69
2023/08/27 13:33:03;;;;;;;0.40;0.40;;;21.30;99.90;24.70;100810.00;;;;5032517;28;20220;-69
2023/08/27 13:35:29;;;;;;;0.10;0.10;;;21.20;99.90;25.20;100783.00;;;;5034180;28;20209;-69
2023/08/27 13:37:58;;;;;;;0.20;0.20;;;21.30;99.90;25.20;100781.00;;;;5033485;28;20183;-69
2023/08/27 13:40:27;;;;;;;0.20;0.20;;;21.40;99.90;25.50;100806.00;;;;5033064;28;20190;-69
2023/08/27 13:42:54;;;;;;;0.10;0.10;;;21.60;99.90;25.40;100828.00;;;;5016089;28;20187;-69
2023/08/27 13:45:25;;;;;;;0.17;0.17;;;21.70;99.90;25.80;100844.00;;;;5032262;28;20186;-70
2023/08/27 13:47:51;;;;;;;0.10;0.10;;;21.80;99.90;25.50;100848.00;;;;5032346;28;20645;-70
2023/08/27 13:50:23;;;;;;;0.20;0.20;;;21.70;99.90;25.60;100868.00;;;;5032012;28;20218;-69
2023/08/27 13:52:49;;;;;;;0.10;0.10;;;21.70;99.90;25.50;100869.00;;;;5032258;28;20222;-69
2023/08/27 13:55:15;;;;;;;0.30;0.30;;;21.70;99.90;25.80;100863.00;;;;5031919;28;20182;-69
2023/08/27 13:57:50;;;;;;;0.10;0.10;;;21.80;99.90;25.80;100837.00;;;;5032253;28;20202;-69
2023/08/27 14:00:19;;;;;;;0.95;0.85;;;21.80;99.90;24.10;100829.00;;;;5033324;28;20657;-69
2023/08/27 14:02:47;;;;;;;0.50;0.50;;;21.30;99.90;24.30;100851.00;;;;5032391;28;20201;-69
2023/08/27 14:05:16;;;;;;;2.10;0.88;;;21.30;99.90;24.50;100844.00;;;;5031509;28;20210;-69
2023/08/27 14:07:42;;;;;;;0.10;0.10;;;21.20;99.90;24.40;100838.00;;;;5031663;28;20522;-69
2023/08/27 14:10:10;;;;;;;0.20;0.20;;;21.10;99.90;25.00;100848.00;;;;5014183;28;20237;-69
2023/08/27 14:12:46;;;;;;;0.10;0.10;;;21.30;99.90;26.20;100859.00;;;;5042723;28;20730;-69
2023/08/27 14:15:15;;;;;;;0.17;0.17;;;21.80;99.90;26.30;100874.00;;;;5032046;28;20652;-69
2023/08/27 14:17:41;;;;;;;0.98;0.98;;;22.10;99.90;26.10;100877.00;;;;5032730;28;20213;-69
2023/08/27 14:20:10;;;;;;;0.40;0.40;;;22.10;99.90;26.20;100877.00;;;;5031665;28;20202;-69
2023/08/27 14:22:36;;;;;;;0.10;0.10;;;22.10;99.90;26.40;100897.00;;;;5029647;28;20194;-69
2023/08/27 14:25:03;;;;;;;0.20;0.20;;;22.10;99.90;26.10;100892.00;;;;5031587;28;20182;-70
2023/08/27 14:27:33;;;;;;;0.10;0.10;;;22.10;99.90;25.00;100894.00;;;;5030980;28;20195;-68
2023/08/27 14:29:58;;;;;;;7.82;0.90;;;21.50;99.90;23.70;100892.00;;;;5031633;28;20693;-69
2023/08/27 14:32:25;;;;;;;0.10;0.10;;;21.00;99.90;24.80;100878.00;;;;5032906;28;20203;-69
2023/08/27 14:34:51;;;;;;;0.10;0.10;;;21.10;99.90;26.10;100893.00;;;;5031759;28;20182;-69
2023/08/27 14:37:17;;;;;;;1.00;0.55;;;21.70;99.90;25.30;100894.00;;;;5025024;28;20248;-69
2023/08/27 14:39:45;;;;;;;0.10;0.10;;;22.00;99.90;26.30;100890.00;;;;5032496;28;20186;-69
2023/08/27 14:42:11;;;;;;;0.80;0.80;;;22.20;99.90;26.30;100850.00;;;;5031816;28;20175;-69
2023/08/27 14:44:42;;;;;;;0.30;0.30;;;22.40;99.90;25.30;100893.00;;;;5032981;28;20537;-69
2023/08/27 14:47:11;;;;;;;0.55;0.47;;;22.10;99.90;23.60;100918.00;;;;5031679;28;20190;-69
2023/08/27 14:49:37;;;;;;;2.13;0.60;;;21.10;99.90;24.40;100918.00;;;;5014894;28;20195;-69
2023/08/27 14:52:06;;;;;;;1.00;0.30;;;21.10;99.90;24.80;100913.00;;;;5032478;28;20233;-69
2023/08/27 14:54:39;;;;;;;0.20;0.20;;;21.30;99.90;23.60;100926.00;;;;5032682;28;20218;-69
2023/08/27 14:57:06;;;;;;;0.20;0.20;;;21.00;99.90;24.10;100903.00;;;;5033063;28;20190;-69
2023/08/27 14:59:47;;;;;;;0.30;0.30;;;20.90;99.90;25.30;100894.00;;;;5011777;28;20191;-69
2023/08/27 15:02:30;;;;;;;0.10;0.10;;;21.30;99.90;25.90;100884.00;;;;5058478;28;20182;-68
2023/08/27 15:05:18;;;;;;;0.10;0.10;;;21.60;99.90;25.80;100876.00;;;;5023219;28;20187;-70
2023/08/27 15:07:47;;;;;;;0.20;0.20;;;21.80;99.90;25.90;100883.00;;;;5044353;28;20642;-70
2023/08/27 15:10:22;;;;;;;0.10;0.10;;;21.80;99.90;26.00;100887.00;;;;5031114;28;20187;-69
2023/08/27 15:13:13;;;;;;;0.20;0.20;;;21.90;99.90;24.70;100914.00;;;;5013135;28;20214;-68
2023/08/27 15:15:57;;;;;;;0.20;0.20;;;21.60;99.90;25.00;100919.00;;;;5063160;28;20417;-69
2023/08/27 15:18:43;;;;;;;1.65;0.40;;;21.30;99.90;25.20;100923.00;;;;5032097;28;20616;-68
2023/08/27 15:21:26;;;;;;;0.55;0.50;;;21.40;99.90;24.30;100946.00;;;;5018019;28;20191;-68
2023/08/27 15:24:24;;;;;;;0.20;0.20;;;21.30;99.90;25.10;100929.00;;;;5034411;28;20175;-68
2023/08/27 15:27:25;;;;;;;1.10;1.00;;;21.50;99.90;24.10;100937.00;;;;5036194;28;20269;-68
2023/08/27 15:30:12;;;;;;;0.10;0.10;;;20.90;99.90;24.80;100946.00;;;;5047722;28;20270;-68
2023/08/27 15:32:58;;;;;;;1.15;0.50;;;21.20;99.90;25.90;100938.00;;;;5062249;28;20222;-68
2023/08/27 15:35:44;;;;;;;0.10;0.10;;;21.70;99.90;26.00;100934.00;;;;5025771;28;20217;-68
2023/08/27 15:38:19;;;;;;;0.10;0.10;;;22.00;99.90;26.30;100932.00;;;;5028038;28;20187;-68
2023/08/27 15:40:54;;;;;;;0.20;0.20;;;22.10;99.90;26.30;100903.00;;;;5033413;28;20187;-68
2023/08/27 15:43:47;;;;;;;0.20;0.20;;;22.10;99.90;25.60;100934.00;;;;5033249;28;20210;-68
2023/08/27 15:46:23;;;;;;;0.20;0.20;;;22.00;99.90;25.50;100945.00;;;;5024006;28;20206;-68
2023/08/27 15:49:07;;;;;;;0.20;0.20;;;21.80;99.90;25.90;100932.00;;;;5034536;28;20195;-68
2023/08/27 15:51:51;;;;;;;0.10;0.10;;;21.70;99.90;26.20;100936.00;;;;5034226;28;20198;-68
2023/08/27 15:54:34;;;;;;;0.20;0.20;;;21.80;99.90;26.30;100937.00;;;;5035691;28;20178;-68
2023/08/27 15:57:09;;;;;;;0.50;0.50;;;21.90;99.90;25.50;100946.00;;;;5034242;28;20187;-68
2023/08/27 15:59:53;;;;;;;0.10;0.10;;;21.70;99.90;25.80;100939.00;;;;5034445;28;20180;-67
2023/08/27 16:02:36;;;;;;;0.30;0.30;;;21.70;99.90;25.50;100952.00;;;;5020729;28;20191;-68
2023/08/27 16:05:22;;;;;;;0.20;0.20;;;21.60;99.90;25.70;100940.00;;;;5034272;28;20179;-68
2023/08/27 16:08:14;;;;;;;0.10;0.10;;;21.60;99.90;25.40;100929.00;;;;5027730;28;20186;-68
2023/08/27 16:10:59;;;;;;;0.13;0.13;;;21.60;99.90;25.40;100946.00;;;;5034389;28;20191;-68
2023/08/27 16:13:47;;;;;;;1.20;0.50;;;21.60;99.90;23.70;100971.00;;;;5053111;28;20245;-68
2023/08/27 16:16:33;;;;;;;5.22;0.80;;;20.90;99.90;22.80;100988.00;;;;5013942;28;20763;-68
2023/08/27 16:19:22;;;;;;;0.75;0.70;;;20.40;99.90;23.80;100973.00;;;;5026676;28;20205;-66
2023/08/27 16:22:11;;;;;;;0.28;0.28;;;20.40;99.90;24.10;100956.00;;;;5021742;28;20199;-68
2023/08/27 16:24:57;;;;;;;0.30;0.30;;;20.70;99.90;24.20;100964.00;;;;5026749;28;20182;-68
2023/08/27 16:27:46;;;;;;;0.20;0.20;;;20.70;99.90;23.80;100971.00;;;;5017212;28;20730;-68
2023/08/27 16:30:49;;;;;;;0.45;0.45;;;20.50;99.90;24.20;100971.00;;;;5035818;28;20186;-68
2023/08/27 16:33:18;;;;;;;0.70;0.40;;;20.60;99.90;24.80;100920.00;;;;5021289;28;20306;-68
2023/08/27 16:35:47;;;;;;;0.20;0.20;;;20.90;99.90;25.10;100945.00;;;;5033666;28;20187;-68
2023/08/27 16:38:24;;;;;;;0.38;0.38;;;21.00;99.90;25.00;100901.00;;;;5033521;28;20194;-69
2023/08/27 16:41:23;;;;;;;0.20;0.20;;;21.10;99.90;25.90;100924.00;;;;5034958;28;20186;-68
2023/08/27 16:44:20;;;;;;;0.32;0.25;;;21.40;99.90;25.00;100951.00;;;;5034834;28;20285;-68
2023/08/27 16:46:48;;;;;;;0.80;0.60;;;21.40;99.90;22.80;100994.00;;;;5017234;28;20194;-68
2023/08/27 16:49:32;;;;;;;0.10;0.10;;;20.50;99.90;24.40;100969.00;;;;5031121;28;20191;-69
2023/08/27 16:52:18;;;;;;;0.20;0.20;;;20.50;99.90;23.70;100976.00;;;;5028631;28;20254;-68
2023/08/27 16:55:02;;;;;;;0.47;0.47;;;20.20;99.90;23.50;100948.00;;;;5016851;28;20654;-67
2023/08/27 16:57:30;;;;;;;0.60;0.60;;;20.30;99.90;24.40;100982.00;;;;5034005;28;20182;-68
2023/08/27 17:00:14;;;;;;;0.30;0.30;;;20.50;99.90;23.50;100987.00;;;;5033375;28;20197;-68
2023/08/27 17:02:53;;;;;;;0.10;0.10;;;20.40;99.90;24.90;100990.00;;;;5032708;28;20187;-68
2023/08/27 17:05:43;;;;;;;0.10;0.10;;;20.50;99.90;25.80;100978.00;;;;5033332;28;20532;-68
2023/08/27 17:08:34;;;;;;;0.10;0.10;;;21.00;99.90;25.70;100982.00;;;;5022436;28;20179;-68
2023/08/27 17:11:03;;;;;;;0.20;0.20;;;21.20;99.90;26.00;100971.00;;;;5032931;28;20183;-69
2023/08/27 17:13:53;;;;;;;0.10;0.10;;;21.40;99.90;26.10;100972.00;;;;5033157;28;20253;-68
2023/08/27 17:16:42;;;;;;;0.13;0.13;;;21.60;99.90;25.90;100934.00;;;;5016483;28;20233;-68
2023/08/27 17:19:26;;;;;;;0.20;0.20;;;21.50;99.90;26.00;100974.00;;;;5030787;28;20645;-68
2023/08/27 17:22:10;;;;;;;0.10;0.10;;;21.60;99.90;26.00;100928.00;;;;5032557;28;20193;-68
2023/08/27 17:25:00;;;;;;;0.35;0.35;;;21.60;99.90;25.60;100984.00;;;;5032860;28;20595;-68
2023/08/27 17:27:48;;;;;;;0.20;0.20;;;21.40;99.90;25.50;100980.00;;;;5029540;28;20225;-68
2023/08/27 17:30:29;;;;;;;0.20;0.20;;;21.40;99.90;25.80;100980.00;;;;5030389;28;20278;-69
2023/08/27 17:33:15;;;;;;;0.10;0.10;;;21.30;99.90;25.60;100987.00;;;;5033858;28;20683;-67
2023/08/27 17:35:43;;;;;;;0.20;0.20;;;21.30;99.90;25.30;100999.00;;;;5025633;28;20616;-68
2023/08/27 17:38:19;;;;;;;0.77;0.77;;;21.10;99.90;25.30;100958.00;;;;5032744;28;20691;-68
2023/08/27 17:41:07;;;;;;;0.10;0.10;;;21.10;99.90;25.60;100972.00;;;;5032192;28;20192;-68
2023/08/27 17:43:43;;;;;;;0.20;0.20;;;21.10;99.90;25.10;101009.00;;;;5033757;28;20265;-68
2023/08/27 17:46:29;;;;;;;9.23;0.47;;;21.00;99.90;24.40;101008.00;;;;5032060;28;20260;-68
2023/08/27 17:49:02;;;;;;;0.20;0.20;;;20.50;99.90;24.20;101021.00;;;;5027686;28;20285;-68
2023/08/27 17:51:48;;;;;;;0.20;0.20;;;20.50;99.90;25.00;101011.00;;;;5033405;28;20684;-67
2023/08/27 17:54:18;;;;;;;0.20;0.20;;;20.50;99.90;24.80;101012.00;;;;5032153;28;20202;-68
2023/08/27 17:57:08;;;;;;;0.20;0.20;;;20.60;99.90;25.40;100979.00;;;;5033159;28;20187;-68
2023/08/27 17:59:46;;;;;;;0.20;0.20;;;20.70;99.90;25.40;101010.00;;;;5031643;28;20713;-68
2023/08/27 18:02:32;;;;;;;0.20;0.20;;;20.80;99.90;25.60;101021.00;;;;5032959;28;20649;-68
2023/08/27 18:05:16;;;;;;;0.20;0.20;;;21.00;99.90;25.30;101029.00;;;;5048877;28;20190;-68
2023/08/27 18:08:01;;;;;;;0.20;0.20;;;20.80;99.90;24.30;101052.00;;;;5027681;28;20258;-67
2023/08/27 18:10:45;;;;;;;0.20;0.20;;;20.70;99.90;23.60;101045.00;;;;5030427;28;20202;-68
2023/08/27 18:13:24;;;;;;;0.20;0.20;;;20.20;99.90;23.80;101010.00;;;;5012295;28;20219;-68
2023/08/27 18:16:13;;;;;;;0.20;0.20;;;20.00;99.90;24.60;101050.00;;;;5041472;28;20217;-68
2023/08/27 18:19:02;;;;;;;0.30;0.30;;;20.20;99.90;24.40;101054.00;;;;5031074;28;20258;-68
2023/08/27 18:21:31;;;;;;;0.57;0.57;;;20.10;99.90;24.70;101052.00;;;;5012308;28;20198;-68
2023/08/27 18:24:14;;;;;;;0.20;0.20;;;20.30;99.90;23.70;101052.00;;;;5041858;28;20189;-67
2023/08/27 18:26:50;;;;;;;0.28;0.28;;;19.80;99.90;23.70;101069.00;;;;5031771;28;20182;-68